Time;durP1;ratioP1;P1;durP2;ratioP2;P2;SDS_P1;SDS_P2;PMS_P1;PMS_P2;Temp;Humidity;BMP_temperature;BMP_pressure;BME280_temperature;BME280_humidity;BME280_pressure;Samples;Min_cycle;Max_cycle;Signal;HPM_P1;HPM_P2
2022/07/07 00:01:31;;;;;;;;;;;;;;;-142.75;100.00;76792.75;5055381;28;19917;-66
2022/07/07 00:03:57;;;;;;;;;;;;;;;-142.75;100.00;76782.91;5055494;28;19913;-67
2022/07/07 00:06:22;;;;;;;;;;;;;;;-142.75;100.00;76780.94;5055396;28;19917;-67
2022/07/07 00:08:48;;;;;;;;;;;;;;;-142.75;100.00;76786.84;5055187;28;20557;-67
2022/07/07 00:11:16;;;;;;;;;;;;;;;-142.75;100.00;76784.88;5055366;28;19920;-67
2022/07/07 00:13:41;;;;;;;;;;;;;;;-142.75;100.00;76775.03;5055366;28;19934;-67
2022/07/07 00:16:07;;;;;;;;;;;;;;;-142.75;100.00;76775.03;5055253;28;20438;-67
2022/07/07 00:18:32;;;;;;;;;;;;;;;-142.75;100.00;76778.97;5054962;28;19935;-66
2022/07/07 00:20:57;;;;;;;;;;;;;;;-142.75;100.00;76778.97;5055112;28;19970;-67
2022/07/07 00:23:23;;;;;;;;;;;;;;;-142.75;100.00;76778.97;5055180;28;19947;-67
2022/07/07 00:25:48;;;;;;;;;;;;;;;-142.75;100.00;76775.03;5055022;28;20288;-67
2022/07/07 00:28:13;;;;;;;;;;;;;;;-142.75;100.00;76778.97;5054867;28;19920;-67
2022/07/07 00:30:38;;;;;;;;;;;;;;;-142.75;100.00;76778.97;5054726;28;20397;-66
2022/07/07 00:33:03;;;;;;;;;;;;;;;-142.75;100.00;76780.94;5054326;28;19920;-67
2022/07/07 00:35:29;;;;;;;;;;;;;;;-142.75;100.00;76786.84;5055061;28;19920;-67
2022/07/07 00:37:54;;;;;;;;;;;;;;;-142.75;100.00;76773.06;5054612;28;19983;-66
2022/07/07 00:40:19;;;;;;;;;;;;;;;-142.75;100.00;76771.09;5036922;28;19913;-67
2022/07/07 00:42:44;;;;;;;;;;;;;;;-142.75;100.00;76767.16;5054840;28;20374;-67
2022/07/07 00:45:09;;;;;;;;;;;;;;;-142.75;100.00;76767.16;5054763;28;19996;-67
2022/07/07 00:47:35;;;;;;;;;;;;;;;-142.75;100.00;76763.22;5054609;28;20405;-67
2022/07/07 00:50:00;;;;;;;;;;;;;;;-142.75;100.00;76769.13;5036438;28;20385;-67
2022/07/07 00:52:25;;;;;;;;;;;;;;;-142.75;100.00;76775.03;5054684;28;19912;-66
2022/07/07 00:54:51;;;;;;;;;;;;;;;-142.75;100.00;76778.97;5054623;28;20290;-67
2022/07/07 00:57:17;;;;;;;;;;;;;;;-142.75;100.00;76778.97;5036704;28;20027;-68
2022/07/07 00:59:42;;;;;;;;;;;;;;;-142.75;100.00;76777.00;5054156;28;19913;-67
2022/07/07 01:02:07;;;;;;;;;;;;;;;-142.75;100.00;76782.91;5036530;28;19966;-67
2022/07/07 01:04:32;;;;;;;;;;;;;;;-142.75;100.00;76773.06;5054390;28;20058;-67
2022/07/07 01:06:58;;;;;;;;;;;;;;;-142.75;100.00;76786.84;5036500;28;19928;-67
2022/07/07 01:09:23;;;;;;;;;;;;;;;-142.75;100.00;76777.00;5053947;28;19990;-68
2022/07/07 01:11:52;;;;;;;;;;;;;;;-142.75;100.00;76790.78;5054276;28;19928;-67
2022/07/07 01:14:17;;;;;;;;;;;;;;;-142.75;100.00;76806.50;5054182;28;20386;-67
2022/07/07 01:16:43;;;;;;;;;;;;;;;-142.75;100.00;76808.50;5054169;28;20024;-67
2022/07/07 01:19:08;;;;;;;;;;;;;;;-142.75;100.00;76822.25;5053822;28;19939;-67
2022/07/07 01:21:37;;;;;;;;;;;;;;;-142.75;100.00;76826.19;5054065;28;19939;-67
2022/07/07 01:24:02;;;;;;;;;;;;;;;-142.75;100.00;76839.97;5051840;28;19917;-66
2022/07/07 01:26:29;;;;;;;;;;;;;;;-142.75;100.00;76843.91;5036055;28;20297;-67
2022/07/07 01:28:54;;;;;;;;;;;;;;;-142.75;100.00;76838.00;5053647;28;20390;-67
2022/07/07 01:31:19;;;;;;;;;;;;;;;-142.75;100.00;76838.00;5053684;28;19967;-67
2022/07/07 01:33:44;;;;;;;;;;;;;;;-142.75;100.00;76845.88;5053799;28;19919;-67
2022/07/07 01:36:13;;;;;;;;;;;;;;;-142.75;100.00;76845.88;5053787;28;20430;-68
2022/07/07 01:38:38;;;;;;;;;;;;;;;-142.75;100.00;76857.69;5053433;28;19958;-66
2022/07/07 01:41:03;;;;;;;;;;;;;;;-142.75;100.00;76857.69;5053584;28;19917;-67
2022/07/07 01:43:28;;;;;;;;;;;;;;;-142.75;100.00;76857.69;5053597;28;19912;-66
2022/07/07 01:45:53;;;;;;;;;;;;;;;-142.75;100.00;76863.59;5053487;28;19920;-66
2022/07/07 01:48:18;;;;;;;;;;;;;;;-142.75;100.00;76865.56;5053226;28;19920;-66
2022/07/07 01:50:44;;;;;;;;;;;;;;;-142.75;100.00;76867.53;5053575;28;19912;-68
2022/07/07 01:53:09;;;;;;;;;;;;;;;-142.75;100.00;76859.66;5053501;28;20406;-67
2022/07/07 01:55:34;;;;;;;;;;;;;;;-142.75;100.00;76899.03;5053415;28;20385;-67
2022/07/07 01:58:00;;;;;;;;;;;;;;;-142.75;100.00;76912.81;5053144;28;20275;-67
2022/07/07 02:00:25;;;;;;;;;;;;;;;-142.75;100.00;76924.63;5053177;28;19959;-67
2022/07/07 02:02:50;;;;;;;;;;;;;;;-142.75;100.00;76924.63;5053246;28;19915;-67
2022/07/07 02:05:15;;;;;;;;;;;;;;;-142.75;100.00;76928.56;5053235;28;19913;-67
2022/07/07 02:07:40;;;;;;;;;;;;;;;-142.75;100.00;76920.69;5053206;28;20297;-67
2022/07/07 02:10:06;;;;;;;;;;;;;;;-142.75;100.00;76928.56;5052821;28;20442;-67
2022/07/07 02:12:31;;;;;;;;;;;;;;;-142.75;100.00;76938.41;5053125;28;19943;-67
2022/07/07 02:14:57;;;;;;;;;;;;;;;-142.75;100.00;76948.25;5052960;28;19913;-67
2022/07/07 02:17:22;;;;;;;;;;;;;;;-142.75;100.00;76940.38;5052994;28;19916;-67
2022/07/07 02:19:47;;;;;;;;;;;;;;;-142.75;100.00;76940.38;5052635;28;19919;-66
2022/07/07 02:22:12;;;;;;;;;;;;;;;-142.75;100.00;76934.47;5052909;28;20000;-67
2022/07/07 02:24:38;;;;;;;;;;;;;;;-142.75;100.00;76940.38;5052910;28;19924;-66
2022/07/07 02:27:04;;;;;;;;;;;;;;;-142.75;100.00;76946.28;5052802;28;19917;-67
2022/07/07 02:29:29;;;;;;;;;;;;;;;-142.75;100.00;76952.19;5052261;28;19913;-67
2022/07/07 02:31:55;;;;;;;;;;;;;;;-142.75;100.00;76946.28;5052696;28;19913;-67
2022/07/07 02:34:20;;;;;;;;;;;;;;;-142.75;100.00;76952.19;5052703;28;19962;-66
2022/07/07 02:36:46;;;;;;;;;;;;;;;-142.75;100.00;76956.13;5052680;28;19913;-66
2022/07/07 02:39:11;;;;;;;;;;;;;;;-142.75;100.00;76948.25;5052394;28;19913;-67
2022/07/07 02:41:36;;;;;;;;;;;;;;;-142.75;100.00;76958.09;5052585;28;19939;-66
2022/07/07 02:44:01;;;;;;;;;;;;;;;-142.75;100.00;76956.13;5052531;28;20301;-67
2022/07/07 02:46:28;;;;;;;;;;;;;;;-142.75;100.00;76958.09;5052389;28;19924;-67
2022/07/07 02:48:53;;;;;;;;;;;;;;;-142.75;100.00;76967.94;5052217;28;20386;-66
2022/07/07 02:51:19;;;;;;;;;;;;;;;-142.75;100.00;76985.66;5052376;28;19913;-67
2022/07/07 02:53:44;;;;;;;;;;;;;;;-142.75;100.00;76977.78;5052416;28;19913;-67
2022/07/07 02:56:09;;;;;;;;;;;;;;;-142.75;100.00;76979.75;5051974;28;19912;-67
2022/07/07 02:58:34;;;;;;;;;;;;;;;-142.75;100.00;76973.84;5052046;28;19965;-67
2022/07/07 03:00:59;;;;;;;;;;;;;;;-142.75;100.00;76975.81;5052183;28;20337;-67
2022/07/07 03:03:25;;;;;;;;;;;;;;;-142.75;100.00;76971.88;5052275;28;20390;-67
2022/07/07 03:05:50;;;;;;;;;;;;;;;-142.75;100.00;76983.69;5052208;28;19924;-66
2022/07/07 03:08:15;;;;;;;;;;;;;;;-142.75;100.00;76995.50;5052004;28;19913;-66
2022/07/07 03:10:41;;;;;;;;;;;;;;;-142.75;100.00;77003.38;5052143;28;20373;-67
2022/07/07 03:13:06;;;;;;;;;;;;;;;-142.75;100.00;77023.06;5052092;28;19913;-66
2022/07/07 03:15:31;;;;;;;;;;;;;;;-142.75;100.00;77042.75;5052119;28;19913;-67
2022/07/07 03:17:57;;;;;;;;;;;;;;;-142.75;100.00;77064.41;5051816;28;19919;-66
2022/07/07 03:20:23;;;;;;;;;;;;;;;-142.75;100.00;77070.31;5052049;28;19913;-67
2022/07/07 03:22:49;;;;;;;;;;;;;;;-142.75;100.00;77091.97;5052152;28;19958;-66
2022/07/07 03:25:15;;;;;;;;;;;;;;;-142.75;100.00;77093.94;5052080;28;19912;-65
2022/07/07 03:27:40;;;;;;;;;;;;;;;-142.75;100.00;77109.69;5051874;28;19916;-67
2022/07/07 03:30:07;;;;;;;;;;;;;;;-142.75;100.00;77109.69;5069347;22;19990;-68
2022/07/07 03:32:32;;;;;;;;;;;;;;;-142.75;100.00;77117.56;4949836;28;19930;-70
2022/07/07 03:34:57;;;;;;;;;;;;;;;-142.75;100.00;77121.50;4965127;28;19915;-69
2022/07/07 03:37:24;;;;;;;;;;;;;;;-142.75;100.00;77117.56;4951243;28;19922;-69
2022/07/07 03:39:49;;;;;;;;;;;;;;;-142.75;100.00;77121.50;4950936;28;19946;-69
2022/07/07 03:42:14;;;;;;;;;;;;;;;-142.75;100.00;77127.41;4965847;28;19957;-69
2022/07/07 03:44:39;;;;;;;;;;;;;;;-142.75;100.00;77121.50;4949773;28;19915;-69
2022/07/07 03:47:05;;;;;;;;;;;;;;;-142.75;100.00;77125.44;4950947;28;19926;-69
2022/07/07 03:49:30;;;;;;;;;;;;;;;-142.75;100.00;77125.44;4949535;28;19921;-69
2022/07/07 03:51:56;;;;;;;;;;;;;;;-142.75;100.00;77131.34;4950984;28;20395;-69
2022/07/07 03:54:21;;;;;;;;;;;;;;;-142.75;100.00;77127.41;4950990;28;19915;-69
2022/07/07 03:56:46;;;;;;;;;;;;;;;-142.75;100.00;77121.50;4950943;29;20019;-69
2022/07/07 03:59:12;;;;;;;;;;;;;;;-142.75;100.00;77117.56;4949284;28;19961;-69
2022/07/07 04:01:37;;;;;;;;;;;;;;;-142.75;100.00;77127.41;4950791;28;19922;-69
2022/07/07 04:04:04;;;;;;;;;;;;;;;-142.75;100.00;77123.47;4950931;28;19950;-70
2022/07/07 04:06:31;;;;;;;;;;;;;;;-142.75;100.00;77123.47;4950806;28;19918;-69
2022/07/07 04:08:56;;;;;;;;;;;;;;;-142.75;100.00;77113.63;4952990;28;19960;-70
2022/07/07 04:11:21;;;;;;;;;;;;;;;-142.75;100.00;77113.63;4968981;28;19919;-70
2022/07/07 04:13:46;;;;;;;;;;;;;;;-142.75;100.00;77117.56;4968827;28;19950;-70
2022/07/07 04:16:11;;;;;;;;;;;;;;;-142.75;100.00;77113.63;4954047;28;19914;-70
2022/07/07 04:18:37;;;;;;;;;;;;;;;-142.75;100.00;77129.38;4952527;28;20376;-70
2022/07/07 04:21:02;;;;;;;;;;;;;;;-142.75;100.00;77125.44;4953989;28;20001;-70
2022/07/07 04:23:27;;;;;;;;;;;;;;;-142.75;100.00;77117.56;4969085;28;19922;-70
2022/07/07 04:25:53;;;;;;;;;;;;;;;-142.75;100.00;77127.41;4953828;28;19914;-70
2022/07/07 04:28:18;;;;;;;;;;;;;;;-142.75;100.00;77127.41;4953591;28;19915;-70
2022/07/07 04:30:44;;;;;;;;;;;;;;;-142.75;100.00;77125.44;4953578;28;20296;-70
2022/07/07 04:33:09;;;;;;;;;;;;;;;-142.75;100.00;77131.34;4953832;28;19921;-70
2022/07/07 04:35:34;;;;;;;;;;;;;;;-142.75;100.00;77137.25;4953770;28;19915;-70
2022/07/07 04:37:59;;;;;;;;;;;;;;;-142.75;100.00;77156.94;4953492;28;19919;-70
2022/07/07 04:40:24;;;;;;;;;;;;;;;-142.75;100.00;77137.25;4953621;28;20299;-69
2022/07/07 04:42:50;;;;;;;;;;;;;;;-142.75;100.00;77166.78;4952366;28;19921;-70
2022/07/07 04:45:15;;;;;;;;;;;;;;;-142.75;100.00;77176.63;4953524;28;20611;-69
2022/07/07 04:47:41;;;;;;;;;;;;;;;-142.75;100.00;77178.59;4952302;28;20021;-70
2022/07/07 04:50:07;;;;;;;;;;;;;;;-142.75;100.00;77184.50;4953347;28;19930;-70
2022/07/07 04:52:32;;;;;;;;;;;;;;;-142.75;100.00;77194.34;4968376;28;19914;-71
2022/07/07 04:54:58;;;;;;;;;;;;;;;-142.75;100.00;77188.44;4953422;28;20009;-70
2022/07/07 04:57:23;;;;;;;;;;;;;;;-142.75;100.00;77192.38;4953307;28;19914;-70
2022/07/07 04:59:48;;;;;;;;;;;;;;;-142.75;100.00;77190.41;4952956;28;19918;-69
2022/07/07 05:02:13;;;;;;;;;;;;;;;-142.75;100.00;77194.34;4953465;28;20013;-70
2022/07/07 05:04:38;;;;;;;;;;;;;;;-142.75;100.00;77204.19;4953474;28;19914;-70
2022/07/07 05:07:04;;;;;;;;;;;;;;;-142.75;100.00;77196.31;4953193;28;19918;-71
2022/07/07 05:09:29;;;;;;;;;;;;;;;-142.75;100.00;77186.47;4953057;28;19914;-70
2022/07/07 05:11:54;;;;;;;;;;;;;;;-142.75;100.00;77192.38;4953130;28;19915;-69
2022/07/07 05:14:19;;;;;;;;;;;;;;;-142.75;100.00;77192.38;4951826;28;19914;-70
2022/07/07 05:16:45;;;;;;;;;;;;;;;-142.75;100.00;77194.34;4953093;28;19914;-69
2022/07/07 05:19:10;;;;;;;;;;;;;;;-142.75;100.00;77180.56;4952528;28;19961;-67
2022/07/07 05:21:35;;;;;;;;;;;;;;;-142.75;100.00;77176.63;4953109;28;19921;-69
2022/07/07 05:24:00;;;;;;;;;;;;;;;-142.75;100.00;77176.63;4953007;28;20343;-69
2022/07/07 05:26:25;;;;;;;;;;;;;;;-142.75;100.00;77172.69;4951661;28;19919;-69
2022/07/07 05:28:50;;;;;;;;;;;;;;;-142.75;100.00;77172.69;4952592;28;19918;-69
2022/07/07 05:31:16;;;;;;;;;;;;;;;-142.75;100.00;77180.56;4952719;28;19918;-69
2022/07/07 05:33:41;;;;;;;;;;;;;;;-142.75;100.00;77188.44;4952878;28;19958;-70
2022/07/07 05:36:07;;;;;;;;;;;;;;;-142.75;100.00;77192.38;4952872;28;19919;-70
2022/07/07 05:38:33;;;;;;;;;;;;;;;-142.75;100.00;77202.22;4952541;28;19940;-69
2022/07/07 05:40:58;;;;;;;;;;;;;;;-142.75;100.00;77208.13;4951206;28;19956;-71
2022/07/07 05:43:24;;;;;;;;;;;;;;;-142.75;100.00;77217.97;4941387;28;19988;-70
2022/07/07 05:45:49;;;;;;;;;;;;;;;-142.75;100.00;77210.09;4942353;28;19919;-69
2022/07/07 05:48:14;;;;;;;;;;;;;;;-142.75;100.00;77219.94;4951125;28;19914;-69
2022/07/07 05:50:40;;;;;;;;;;;;;;;-142.75;100.00;77223.88;4952742;28;19921;-69
2022/07/07 05:53:05;;;;;;;;;;;;;;;-142.75;100.00;77231.75;4967487;28;19915;-70
2022/07/07 05:55:30;;;;;;;;;;;;;;;-142.75;100.00;77233.72;4967414;28;20300;-68
2022/07/07 05:57:56;;;;;;;;;;;;;;;-142.75;100.00;77231.75;4952123;28;19915;-69
2022/07/07 06:00:22;;;;;;;;;;;;;;;-142.75;100.00;77227.81;4951229;28;19914;-70
2022/07/07 06:02:48;;;;;;;;;;;;;;;-142.75;100.00;77186.47;4952512;28;20001;-69
2022/07/07 06:05:13;;;;;;;;;;;;;;;-142.75;100.00;77176.63;4952445;28;19961;-70
2022/07/07 06:07:38;;;;;;;;;;;;;;;-142.75;100.00;77156.94;4967089;28;20005;-70
2022/07/07 06:10:04;;;;;;;;;;;;;;;-142.75;100.00;77170.72;4952044;28;19915;-70
2022/07/07 06:12:29;;;;;;;;;;;;;;;-142.75;100.00;77170.72;4966950;28;19915;-70
2022/07/07 06:14:54;;;;;;;;;;;;;;;-142.75;100.00;77196.31;4951289;28;19921;-68
2022/07/07 06:17:19;;;;;;;;;;;;;;;-142.75;100.00;77231.75;4947648;28;20300;-68
2022/07/07 06:19:44;;;;;;;;;;;;;;;-142.75;100.00;77225.84;4937821;28;19996;-69
2022/07/07 06:22:09;;;;;;;;;;;;;;;-142.75;100.00;77233.72;4932111;28;19915;-69
2022/07/07 06:24:35;;;;;;;;;;;;;;;-142.75;100.00;77237.66;4930781;28;20312;-69
2022/07/07 06:27:00;;;;;;;;;;;;;;;-142.75;100.00;77245.53;4931951;28;19926;-69
2022/07/07 06:29:26;;;;;;;;;;;;;;;-142.75;100.00;77247.50;4931543;28;20022;-69
2022/07/07 06:31:51;;;;;;;;;;;;;;;-142.75;100.00;77245.53;4929572;28;20008;-70
2022/07/07 06:34:16;;;;;;;;;;;;;;;-142.75;100.00;77223.88;4931918;28;19973;-69
2022/07/07 06:36:41;;;;;;;;;;;;;;;-142.75;100.00;77184.50;4931911;28;19915;-69
2022/07/07 06:39:07;;;;;;;;;;;;;;;-142.75;100.00;77168.75;4946263;28;19919;-69
2022/07/07 06:41:33;;;;;;;;;;;;;;;-142.75;100.00;77139.22;4931624;28;19922;-69
2022/07/07 06:43:58;;;;;;;;;;;;;;;-142.75;100.00;77119.53;4930467;28;19915;-70
2022/07/07 06:46:23;;;;;;;;;;;;;;;-142.75;100.00;77125.44;4931787;28;20005;-68
2022/07/07 06:48:48;;;;;;;;;;;;;;;-142.75;100.00;77141.19;4931579;28;19919;-69
2022/07/07 06:51:14;;;;;;;;;;;;;;;-142.75;100.00;77121.50;4931704;28;19914;-69
2022/07/07 06:53:39;;;;;;;;;;;;;;;-142.75;100.00;77084.09;4931840;28;19989;-69
2022/07/07 06:56:04;;;;;;;;;;;;;;;-142.75;100.00;77084.09;4931779;28;19951;-69
2022/07/07 06:58:29;;;;;;;;;;;;;;;-142.75;100.00;77076.22;4931088;28;19954;-70
2022/07/07 07:00:55;;;;;;;;;;;;;;;-142.75;100.00;77058.50;4931560;28;19919;-70
2022/07/07 07:03:20;;;;;;;;;;;;;;;-142.75;100.00;77015.19;4946357;28;19914;-70
2022/07/07 07:05:45;;;;;;;;;;;;;;;-142.75;100.00;77015.19;4931456;28;19957;-70
2022/07/07 07:08:10;;;;;;;;;;;;;;;-142.75;100.00;77046.69;4930014;28;19923;-70
2022/07/07 07:10:36;;;;;;;;;;;;;;;-142.75;100.00;77056.53;4988367;28;19923;-70
2022/07/07 07:13:01;;;;;;;;;;;;;;;-142.75;100.00;77101.81;5017578;28;20473;-70
2022/07/07 07:15:26;;;;;;;;;;;;;;;-142.75;100.00;77117.56;5031495;28;19936;-68
2022/07/07 07:17:51;;;;;;;;;;;;;;;-142.75;100.00;77137.25;5007864;28;19912;-68
2022/07/07 07:20:17;;;;;;;;;;;;;;;-142.75;100.00;77141.19;5051134;28;20401;-71
2022/07/07 07:22:42;;;;;;;;;;;;;;;-142.75;100.00;77141.19;5051281;28;19955;-70
2022/07/07 07:25:07;;;;;;;;;;;;;;;-142.75;100.00;77141.19;5049897;28;20374;-69
2022/07/07 07:27:34;;;;;;;;;;;;;;;-142.75;100.00;77149.06;5051229;28;19971;-70
2022/07/07 07:29:59;;;;;;;;;;;;;;;-142.75;100.00;77151.03;5051602;28;20341;-71
2022/07/07 07:32:24;;;;;;;;;;;;;;;-142.75;100.00;77115.59;4984528;28;19969;-71
2022/07/07 07:34:49;;;;;;;;;;;;;;;-142.75;100.00;77074.25;4932305;28;19921;-71
2022/07/07 07:37:15;;;;;;;;;;;;;;;-142.75;100.00;77086.06;4946696;28;20010;-72
2022/07/07 07:39:40;;;;;;;;;;;;;;;-142.75;100.00;77097.88;4930577;28;20017;-72
2022/07/07 07:42:06;;;;;;;;;;;;;;;-142.75;100.00;77090.00;4933185;28;19915;-71
2022/07/07 07:47:15;;;;;;;;;;;;;;;-142.75;100.00;77066.38;4935402;29;19926;-71
2022/07/07 07:49:40;;;;;;;;;;;;;;;-142.75;100.00;77072.28;4935081;28;19915;-69
2022/07/07 07:52:05;;;;;;;;;;;;;;;-142.75;100.00;77088.03;4935231;28;19981;-70
2022/07/07 07:54:31;;;;;;;;;;;;;;;-142.75;100.00;77109.69;4933888;28;20332;-71
2022/07/07 07:56:56;;;;;;;;;;;;;;;-142.75;100.00;77119.53;4935119;28;20350;-70
2022/07/07 07:59:21;;;;;;;;;;;;;;;-142.75;100.00;77109.69;4934928;28;19915;-71
2022/07/07 08:01:46;;;;;;;;;;;;;;;-142.75;100.00;77105.75;4935084;28;19925;-71
2022/07/07 08:04:11;;;;;;;;;;;;;;;-142.75;100.00;77090.00;4935137;28;20440;-70
2022/07/07 08:06:36;;;;;;;;;;;;;;;-142.75;100.00;77074.25;4934975;28;19970;-71
2022/07/07 08:09:02;;;;;;;;;;;;;;;-142.75;100.00;77062.44;4934762;28;19914;-71
2022/07/07 08:11:27;;;;;;;;;;;;;;;-142.75;100.00;77101.81;4934879;28;20360;-71
2022/07/07 08:13:52;;;;;;;;;;;;;;;-142.75;100.00;77139.22;4935025;28;19922;-71
2022/07/07 08:16:17;;;;;;;;;;;;;;;-142.75;100.00;77153.00;4933729;28;20288;-71
2022/07/07 08:18:43;;;;;;;;;;;;;;;-142.75;100.00;77184.50;4934683;28;19922;-72
2022/07/07 08:21:08;;;;;;;;;;;;;;;-142.75;100.00;77214.03;4949623;28;19969;-72
2022/07/07 08:23:33;;;;;;;;;;;;;;;-142.75;100.00;77227.81;4949295;28;19915;-71
2022/07/07 08:25:59;;;;;;;;;;;;;;;-142.75;100.00;77261.28;4933038;28;19987;-71
2022/07/07 08:28:24;;;;;;;;;;;;;;;-142.75;100.00;77269.16;4934160;28;19914;-70
2022/07/07 08:30:49;;;;;;;;;;;;;;;-142.75;100.00;77219.94;4934290;28;20332;-71
2022/07/07 08:33:15;;;;;;;;;;;;;;;-142.75;100.00;77170.72;4934376;28;19930;-72
2022/07/07 08:35:40;;;;;;;;;;;;;;;-142.75;100.00;77166.78;4934575;28;19915;-72
2022/07/07 08:38:06;;;;;;;;;;;;;;;-142.75;100.00;77194.34;4934773;28;19918;-71
2022/07/07 08:40:31;;;;;;;;;;;;;;;-142.75;100.00;77194.34;4933169;28;20309;-71
2022/07/07 08:42:57;;;;;;;;;;;;;;;-142.75;100.00;77166.78;4949325;28;19915;-71
2022/07/07 08:45:22;;;;;;;;;;;;;;;-142.75;100.00;77156.94;4934543;28;19919;-71
2022/07/07 08:47:47;;;;;;;;;;;;;;;-142.75;100.00;77145.13;4934270;28;19976;-71
2022/07/07 08:50:13;;;;;;;;;;;;;;;-142.75;100.00;77137.25;4934288;28;19915;-71
2022/07/07 08:52:38;;;;;;;;;;;;;;;-142.75;100.00;77145.13;4949204;28;20365;-72
2022/07/07 08:55:04;;;;;;;;;;;;;;;-142.75;100.00;77158.91;4933645;28;19915;-72
2022/07/07 08:57:29;;;;;;;;;;;;;;;-142.75;100.00;77168.75;4933006;28;20368;-71
2022/07/07 08:59:56;;;;;;;;;;;;;;;-142.75;100.00;77178.59;4934209;28;20032;-71
2022/07/07 09:02:22;;;;;;;;;;;;;;;-142.75;100.00;77184.50;4933090;28;19918;-72
2022/07/07 09:04:47;;;;;;;;;;;;;;;-142.75;100.00;77194.34;4932918;28;19972;-70
2022/07/07 09:07:12;;;;;;;;;;;;;;;-142.75;100.00;77200.25;4948855;28;19919;-71
2022/07/07 09:09:37;;;;;;;;;;;;;;;-142.75;100.00;77202.22;4933844;28;20343;-72
2022/07/07 09:12:04;;;;;;;;;;;;;;;-142.75;100.00;77184.50;4934091;28;19921;-72
2022/07/07 09:14:37;;;;;;;;;;;;;;;-142.75;100.00;77188.44;4934074;28;20278;-71
2022/07/07 09:17:02;;;;;;;;;;;;;;;-142.75;100.00;77202.22;4932842;28;20393;-71
2022/07/07 09:19:28;;;;;;;;;;;;;;;-142.75;100.00;77186.47;4933766;28;19914;-72
2022/07/07 09:21:53;;;;;;;;;;;;;;;-142.75;100.00;77178.59;4933957;29;20293;-72
2022/07/07 09:24:18;;;;;;;;;;;;;;;-142.75;100.00;77174.66;4933845;28;19915;-72
2022/07/07 09:26:44;;;;;;;;;;;;;;;-142.75;100.00;77172.69;4933869;28;19919;-72
2022/07/07 09:29:13;;;;;;;;;;;;;;;-142.75;100.00;77196.31;4932402;28;20456;-71
2022/07/07 09:31:58;;;;;;;;;;;;;;;-142.75;100.00;77206.16;4934800;28;20368;-71
2022/07/07 09:34:28;;;;;;;;;;;;;;;-142.75;100.00;77208.13;4933843;28;19922;-72
2022/07/07 09:39:49;;;;;;;;;;;;;;;-142.75;100.00;77208.13;4933777;29;19921;-71
2022/07/07 09:42:30;;;;;;;;;;;;;;;-142.75;100.00;77219.94;4933704;28;20013;-71
2022/07/07 09:44:57;;;;;;;;;;;;;;;-142.75;100.00;77245.53;4933678;28;19965;-72
2022/07/07 09:47:23;;;;;;;;;;;;;;;-142.75;100.00;77221.91;4933501;28;19919;-72
2022/07/07 09:50:03;;;;;;;;;;;;;;;-142.75;100.00;77227.81;4933338;28;19914;-72
2022/07/07 09:52:29;;;;;;;;;;;;;;;-142.75;100.00;77217.97;4933503;28;19915;-72
2022/07/07 09:54:55;;;;;;;;;;;;;;;-142.75;100.00;77202.22;4932279;28;19922;-71
2022/07/07 09:57:21;;;;;;;;;;;;;;;-142.75;100.00;77210.09;4933478;28;20288;-71
2022/07/07 09:59:46;;;;;;;;;;;;;;;-142.75;100.00;77231.75;4947792;28;19919;-72
2022/07/07 10:02:18;;;;;;;;;;;;;;;-142.75;100.00;77273.09;4933348;28;19958;-72
2022/07/07 10:04:44;;;;;;;;;;;;;;;-142.75;100.00;77302.63;4932712;28;19915;-72
2022/07/07 10:07:10;;;;;;;;;;;;;;;-142.75;100.00;77328.22;4931435;28;19926;-71
2022/07/07 10:09:36;;;;;;;;;;;;;;;-142.75;100.00;77349.88;4933045;28;19919;-71
2022/07/07 10:12:02;;;;;;;;;;;;;;;-142.75;100.00;77342.00;4933189;28;19922;-72
2022/07/07 10:14:34;;;;;;;;;;;;;;;-142.75;100.00;77310.50;4933144;28;19915;-72
2022/07/07 10:17:00;;;;;;;;;;;;;;;-142.75;100.00;77288.84;4931808;28;19914;-71
2022/07/07 10:19:25;;;;;;;;;;;;;;;-142.75;100.00;77269.16;4932784;28;20343;-72
2022/07/07 10:21:55;;;;;;;;;;;;;;;-142.75;100.00;77251.44;4933011;28;20017;-72
2022/07/07 10:24:21;;;;;;;;;;;;;;;-142.75;100.00;77241.59;4933030;28;19915;-72
2022/07/07 10:26:55;;;;;;;;;;;;;;;-142.75;100.00;77233.72;4931607;28;19923;-70
2022/07/07 10:29:39;;;;;;;;;;;;;;;-142.75;100.00;77245.53;4931299;28;19923;-71
2022/07/07 10:32:04;;;;;;;;;;;;;;;-142.75;100.00;77245.53;4932805;28;20292;-72
2022/07/07 10:34:33;;;;;;;;;;;;;;;-142.75;100.00;77219.94;4932813;28;19969;-71
2022/07/07 10:36:59;;;;;;;;;;;;;;;-142.75;100.00;77202.22;4932838;28;19915;-70
2022/07/07 10:39:26;;;;;;;;;;;;;;;-142.75;100.00;77162.84;4932443;28;20013;-70
2022/07/07 10:42:10;;;;;;;;;;;;;;;-142.75;100.00;77129.38;4931436;28;19915;-72
2022/07/07 10:44:37;;;;;;;;;;;;;;;-142.75;100.00;77135.28;4931524;28;19966;-72
2022/07/07 10:47:05;;;;;;;;;;;;;;;-142.75;100.00;77156.94;4932727;28;19919;-71
2022/07/07 10:49:41;;;;;;;;;;;;;;;-142.75;100.00;77184.50;4931084;28;19937;-71
2022/07/07 10:52:13;;;;;;;;;;;;;;;-142.75;100.00;77231.75;4931913;28;20225;-71
2022/07/07 10:54:45;;;;;;;;;;;;;;;-142.75;100.00;77279.00;4932409;28;19915;-71
2022/07/07 10:57:10;;;;;;;;;;;;;;;-142.75;100.00;77294.75;4932564;28;20389;-71
2022/07/07 10:59:56;;;;;;;;;;;;;;;-142.75;100.00;77279.00;4934850;28;19973;-72
2022/07/07 11:02:28;;;;;;;;;;;;;;;-142.75;100.00;77202.22;4942480;28;20262;-72
2022/07/07 11:04:53;;;;;;;;;;;;;;;-142.75;100.00;77149.06;4940819;28;19914;-71
2022/07/07 11:07:20;;;;;;;;;;;;;;;-142.75;100.00;77139.22;4941713;28;19926;-73
2022/07/07 11:10:04;;;;;;;;;;;;;;;-142.75;100.00;77170.72;4945681;28;19914;-72
2022/07/07 11:12:33;;;;;;;;;;;;;;;-142.75;100.00;77245.53;4950178;28;19954;-72
2022/07/07 11:15:17;;;;;;;;;;;;;;;-142.75;100.00;77298.69;4951545;28;19915;-72
2022/07/07 11:17:42;;;;;;;;;;;;;;;-142.75;100.00;77338.06;4948835;28;19915;-69
2022/07/07 11:20:08;;;;;;;;;;;;;;;-142.75;100.00;77345.94;4931801;28;19915;-71
2022/07/07 11:22:49;;;;;;;;;;;;;;;-142.75;100.00;77280.97;4955199;28;19918;-72
2022/07/07 11:25:15;;;;;;;;;;;;;;;-142.75;100.00;77275.06;4946195;28;20456;-71
2022/07/07 11:27:41;;;;;;;;;;;;;;;-142.75;100.00;77290.81;4939036;28;19973;-72
2022/07/07 11:30:07;;;;;;;;;;;;;;;-142.75;100.00;77292.78;4939859;28;19918;-72
2022/07/07 11:32:36;;;;;;;;;;;;;;;-142.75;100.00;77349.88;4941896;28;19977;-72
2022/07/07 11:35:04;;;;;;;;;;;;;;;-142.75;100.00;77373.50;4940469;28;20396;-72
2022/07/07 11:37:31;;;;;;;;;;;;;;;-142.75;100.00;77391.22;4955538;28;19921;-71
2022/07/07 11:39:56;;;;;;;;;;;;;;;-142.75;100.00;77436.50;4940595;28;19933;-72
2022/07/07 11:42:22;;;;;;;;;;;;;;;-142.75;100.00;77462.13;4940338;28;19915;-72
2022/07/07 11:44:47;;;;;;;;;;;;;;;-142.75;100.00;77464.09;4955718;28;19946;-72
2022/07/07 11:47:12;;;;;;;;;;;;;;;-142.75;100.00;77448.34;4941272;28;19919;-73
2022/07/07 11:49:39;;;;;;;;;;;;;;;-142.75;100.00;77414.84;4938540;28;20412;-72
2022/07/07 11:52:04;;;;;;;;;;;;;;;-142.75;100.00;77403.03;4936366;28;20376;-72
2022/07/07 11:54:29;;;;;;;;;;;;;;;-142.75;100.00;77369.56;4937837;28;19925;-72
2022/07/07 11:56:55;;;;;;;;;;;;;;;-142.75;100.00;77349.88;4951007;28;19914;-71
2022/07/07 11:59:23;;;;;;;;;;;;;;;-142.75;100.00;77306.56;4950736;28;19915;-72
2022/07/07 12:01:50;;;;;;;;;;;;;;;-142.75;100.00;77279.00;4949615;28;20014;-72
2022/07/07 12:04:21;;;;;;;;;;;;;;;-142.75;100.00;77265.22;4950801;28;19914;-73
2022/07/07 12:06:47;;;;;;;;;;;;;;;-142.75;100.00;77298.69;4950674;28;20448;-71
2022/07/07 12:09:12;;;;;;;;;;;;;;;-142.75;100.00;77310.50;4950536;28;19915;-73
2022/07/07 12:11:38;;;;;;;;;;;;;;;-142.75;100.00;77298.69;4950754;28;19914;-72
2022/07/07 12:14:04;;;;;;;;;;;;;;;-142.75;100.00;77306.56;4949498;28;19914;-71
2022/07/07 12:16:41;;;;;;;;;;;;;;;-142.75;100.00;77306.56;4950746;28;19915;-72
2022/07/07 12:19:06;;;;;;;;;;;;;;;-142.75;100.00;77306.56;4950336;29;19920;-72